North Creek, NY (12853)

1:20 PM EST on February 07, 2016 (GMT -0500)
Old River Road | | Change Station
CLOSE
Current Station
Personal Weather Station
Location: North Creek, NY
Elevation: 1030 ft
Nearby Weather Stations

Elev 1030 ft 43.71 °N, 73.99 °W | Updated 17 seconds ago

Overcast
Overcast
35.9 °F
Feels Like 36 °F
N
2.0
Wind Variable Wind from South
Gusts 3.0 mph

Today
High -- | Low -- °F
--% Chance of Precip.
Yesterday
High -- | Low -- °F
Precip. -- in
Pressure 30.16 in
Visibility 10.0 miles
Clouds Overcast 4500 ft
Windchill 36 °F
Dew Point 25 °F
Humidity 64%
Rainfall 0.00 in
Snow Depth Not available.
7:05 AM 5:14 PM
Waning Crescent, 1% visible
METAR KGFL 071753Z AUTO 23003KT 10SM OVC045 05/M06 A3014 RMK AO2 SLP212 T00501056 10050 21061 53000
Pressure 30.16 in
Visibility 10.0 miles
Clouds Overcast 4500 ft
Windchill 36 °F
Dew Point 25 °F
Humidity 64%
Rainfall 0.00 in
Snow Depth Not available.
7:05 AM 5:14 PM
Waning Crescent, 1% visible
METAR KGFL 071753Z AUTO 23003KT 10SM OVC045 05/M06 A3014 RMK AO2 SLP212 T00501056 10050 21061 53000

10-Day Weather Forecast

Almanac

Astronomy

Feb. 07, 2016 Rise Set
Actual Time
Civil Twilight
Nautical Twilight
Astronomical Twilight
Moon
Length of Visible Light
Length of Day
Tomorrow will be .
, % of the Moon is Illuminated

Today's Extremes

State Highs State Lows

Community

WunderPhotos

Upload Photos

1,891,274 photos uploaded!

WunderBlog® & News

Nearby

Air Quality

  Air Quality AQ Index Pollutant
Not available.

Snow Depth

Station Depth Elevation

Earthquake Activity

City Distance Mag. Time & Date
Minimum magnitude displayed is 2.5.

Coastal Water Temperatures

Place Temperature

Stations

Nearby Weather Stations

Station Location Temp. Windchill Dew Point Humidity Wind Precip. Elev Updated Type
                   

Watches & Warnings

There are currently no watches in effect.